Time;durP1;ratioP1;P1;durP2;ratioP2;P2;SDS_P1;SDS_P2;PMS_P1;PMS_P2;Temp;Humidity;BMP_temperature;BMP_pressure;BME280_temperature;BME280_humidity;BME280_pressure;Samples;Min_cycle;Max_cycle;Signal;HPM_P1;HPM_P2
2022/01/12 00:00:51;;;;;;;22.08;9.52;;;;;;;;;;5034429;28;20045;-80
2022/01/12 00:03:17;;;;;;;25.25;11.27;;;;;;;;;;5032413;28;20040;-80
2022/01/12 00:05:43;;;;;;;27.38;10.15;;;;;;;;;;5033551;28;20052;-81
2022/01/12 00:08:08;;;;;;;33.97;12.07;;;;;;;;;;5037234;28;20034;-80
2022/01/12 00:10:34;;;;;;;30.80;10.13;;;;;;;;;;5036744;28;20056;-80
2022/01/12 00:12:59;;;;;;;25.33;10.35;;;;;;;;;;5062701;28;20485;-80
2022/01/12 00:15:25;;;;;;;30.23;10.45;;;;;;;;;;5054325;28;20032;-80
2022/01/12 00:17:50;;;;;;;28.83;9.90;;;;;;;;;;5038032;28;20040;-80
2022/01/12 00:20:16;;;;;;;28.00;11.07;;;;;;;;;;5051476;28;20029;-80
2022/01/12 00:22:41;;;;;;;31.00;10.88;;;;;;;;;;5053298;28;20104;-80
2022/01/12 00:33:10;;;;;;;26.83;10.57;;;;;;;;;;5053732;28;20190;-80
2022/01/12 00:35:56;;;;;;;31.20;11.40;;;;;;;;;;5052916;28;20041;-80
2022/01/12 00:38:25;;;;;;;31.48;11.02;;;;;;;;;;5050339;28;20028;-80
2022/01/12 00:40:52;;;;;;;29.55;10.50;;;;;;;;;;5056108;28;20077;-80
2022/01/12 00:43:20;;;;;;;27.42;10.55;;;;;;;;;;5051257;28;20080;-80
2022/01/12 00:45:46;;;;;;;32.65;10.77;;;;;;;;;;5052903;28;20029;-80
2022/01/12 00:48:16;;;;;;;28.92;11.93;;;;;;;;;;5048813;28;20079;-80
2022/01/12 00:50:42;;;;;;;25.27;9.05;;;;;;;;;;5046540;28;20498;-80
2022/01/12 00:53:08;;;;;;;28.38;10.73;;;;;;;;;;5035494;28;20494;-80
2022/01/12 00:55:35;;;;;;;32.03;11.70;;;;;;;;;;5052955;28;20035;-79
2022/01/12 00:58:01;;;;;;;34.20;11.10;;;;;;;;;;5049574;28;20648;-80
2022/01/12 01:00:28;;;;;;;32.50;11.77;;;;;;;;;;5052104;28;20119;-80
2022/01/12 01:02:54;;;;;;;35.25;12.77;;;;;;;;;;5051492;28;20394;-80
2022/01/12 01:05:24;;;;;;;30.85;11.23;;;;;;;;;;5053358;28;20032;-80
2022/01/12 01:07:51;;;;;;;37.10;12.27;;;;;;;;;;5033370;28;20039;-80
2022/01/12 01:10:22;;;;;;;26.00;10.50;;;;;;;;;;5048914;28;20099;-80
2022/01/12 01:12:47;;;;;;;34.65;11.85;;;;;;;;;;5046042;28;20029;-80
2022/01/12 01:15:17;;;;;;;26.73;10.63;;;;;;;;;;5029269;28;20029;-80
2022/01/12 01:25:45;;;;;;;29.85;10.95;;;;;;;;;;5050229;28;20084;-80
2022/01/12 01:28:13;;;;;;;32.38;10.52;;;;;;;;;;5053289;28;20090;-80
2022/01/12 01:30:40;;;;;;;26.90;10.30;;;;;;;;;;5051999;28;20541;-80
2022/01/12 01:33:09;;;;;;;29.92;10.20;;;;;;;;;;5052621;28;20057;-80
2022/01/12 01:35:37;;;;;;;27.08;10.68;;;;;;;;;;5062470;28;20032;-80
2022/01/12 01:38:03;;;;;;;26.45;8.18;;;;;;;;;;5061060;28;20025;-80
2022/01/12 01:40:30;;;;;;;31.38;10.02;;;;;;;;;;5032128;28;20060;-80
2022/01/12 01:43:11;;;;;;;31.35;11.88;;;;;;;;;;5058421;28;20126;-80
2022/01/12 01:53:51;;;;;;;35.08;10.45;;;;;;;;;;5056927;28;20056;-79
2022/01/12 01:56:19;;;;;;;27.35;10.40;;;;;;;;;;5057963;28;20036;-79
2022/01/12 01:58:45;;;;;;;28.77;10.23;;;;;;;;;;5056909;28;20039;-80
2022/01/12 02:01:10;;;;;;;25.52;9.38;;;;;;;;;;5056235;28;20037;-79
2022/01/12 02:03:35;;;;;;;33.38;10.60;;;;;;;;;;5055680;28;20047;-79
2022/01/12 02:06:03;;;;;;;27.30;9.85;;;;;;;;;;5034510;28;20040;-79
2022/01/12 02:08:29;;;;;;;29.55;10.48;;;;;;;;;;5055846;28;20032;-79
2022/01/12 02:10:56;;;;;;;32.28;10.20;;;;;;;;;;5049276;28;20424;-79
2022/01/12 02:13:22;;;;;;;34.47;10.40;;;;;;;;;;5053008;28;20032;-79
2022/01/12 02:15:49;;;;;;;27.75;10.52;;;;;;;;;;5056108;28;20051;-80
2022/01/12 02:40:06;;;;;;;24.70;9.20;;;;;;;;;;5057235;28;20043;-79
2022/01/12 02:42:31;;;;;;;28.83;11.27;;;;;;;;;;5055149;28;20053;-80
2022/01/12 02:50:47;;;;;;;29.27;9.63;;;;;;;;;;5052305;28;20485;-79
2022/01/12 02:55:59;;;;;;;28.83;10.15;;;;;;;;;;5055959;28;20063;-79
2022/01/12 02:58:24;;;;;;;23.80;9.63;;;;;;;;;;5055840;28;20040;-79
2022/01/12 03:03:23;;;;;;;25.90;11.18;;;;;;;;;;5059347;28;20032;-80
2022/01/12 03:05:58;;;;;;;25.60;10.70;;;;;;;;;;5038695;28;20090;-79
2022/01/12 03:08:25;;;;;;;26.42;9.50;;;;;;;;;;5032597;28;20033;-79
2022/01/12 03:10:50;;;;;;;30.35;10.95;;;;;;;;;;5052991;28;20056;-79
2022/01/12 03:13:16;;;;;;;30.65;11.57;;;;;;;;;;5041521;28;20410;-80
2022/01/12 03:15:42;;;;;;;30.45;12.02;;;;;;;;;;5062172;28;20041;-79
2022/01/12 03:18:08;;;;;;;30.42;10.68;;;;;;;;;;5077789;28;20038;-80
2022/01/12 03:20:33;;;;;;;27.73;10.98;;;;;;;;;;5060291;28;20047;-79
2022/01/12 03:22:59;;;;;;;28.48;9.98;;;;;;;;;;5055341;28;20043;-79
2022/01/12 03:25:26;;;;;;;30.27;11.48;;;;;;;;;;5057939;28;20029;-79
2022/01/12 03:27:56;;;;;;;27.13;10.48;;;;;;;;;;5059507;28;20036;-80
2022/01/12 03:30:22;;;;;;;29.45;10.82;;;;;;;;;;5058397;28;20041;-80
2022/01/12 03:33:01;;;;;;;31.80;11.10;;;;;;;;;;5052191;28;20542;-80
2022/01/12 03:35:47;;;;;;;33.13;11.98;;;;;;;;;;5055506;28;20024;-79
2022/01/12 03:38:21;;;;;;;31.38;10.77;;;;;;;;;;5054855;28;20048;-79
2022/01/12 03:40:48;;;;;;;32.63;12.00;;;;;;;;;;5056853;28;20055;-80
2022/01/12 03:43:14;;;;;;;29.63;12.00;;;;;;;;;;5053320;28;20039;-79
2022/01/12 03:45:41;;;;;;;32.65;11.15;;;;;;;;;;5057859;28;20037;-79
2022/01/12 03:48:06;;;;;;;32.58;11.80;;;;;;;;;;5055287;28;20776;-79
2022/01/12 03:50:32;;;;;;;24.80;10.43;;;;;;;;;;5062920;28;20044;-80
2022/01/12 03:52:57;;;;;;;25.17;10.23;;;;;;;;;;5079286;28;20453;-79
2022/01/12 03:55:23;;;;;;;29.02;11.35;;;;;;;;;;5067859;28;20521;-80
2022/01/12 03:57:48;;;;;;;31.73;10.73;;;;;;;;;;5032886;28;20041;-79
2022/01/12 04:00:14;;;;;;;33.13;10.90;;;;;;;;;;5050102;28;20040;-79
2022/01/12 04:02:40;;;;;;;31.55;10.65;;;;;;;;;;5053872;28;20662;-79
2022/01/12 04:10:15;;;;;;;34.30;11.20;;;;;;;;;;5053859;28;20609;-79
2022/01/12 04:12:40;;;;;;;25.20;10.23;;;;;;;;;;5033478;28;20135;-79
2022/01/12 04:15:06;;;;;;;31.95;11.00;;;;;;;;;;5053962;28;20506;-79
2022/01/12 04:17:32;;;;;;;30.15;10.48;;;;;;;;;;5056186;28;20041;-79
2022/01/12 04:19:58;;;;;;;30.90;11.77;;;;;;;;;;5054221;28;20021;-79
2022/01/12 04:25:07;;;;;;;33.00;11.10;;;;;;;;;;5054755;28;20102;-80
2022/01/12 04:27:32;;;;;;;28.48;10.93;;;;;;;;;;5033075;28;20553;-79
2022/01/12 04:29:58;;;;;;;32.45;10.50;;;;;;;;;;5051702;28;20095;-79
2022/01/12 04:32:25;;;;;;;33.47;12.05;;;;;;;;;;5054075;28;20016;-79
2022/01/12 04:34:50;;;;;;;28.88;9.57;;;;;;;;;;5038460;28;20035;-79
2022/01/12 04:37:16;;;;;;;29.55;10.50;;;;;;;;;;5053478;28;20040;-78
2022/01/12 04:39:41;;;;;;;31.40;11.10;;;;;;;;;;5052091;28;20051;-80
2022/01/12 04:42:07;;;;;;;31.55;11.05;;;;;;;;;;5047716;28;20533;-79
2022/01/12 04:44:32;;;;;;;30.45;11.20;;;;;;;;;;5053323;28;20685;-79
2022/01/12 04:47:06;;;;;;;28.58;10.55;;;;;;;;;;5034224;28;20107;-79
2022/01/12 04:49:52;;;;;;;32.65;11.63;;;;;;;;;;5053621;28;20070;-79
2022/01/12 04:52:17;;;;;;;28.55;10.18;;;;;;;;;;5036712;28;20045;-80
2022/01/12 04:54:43;;;;;;;23.70;9.60;;;;;;;;;;5055846;28;20134;-79
2022/01/12 04:57:08;;;;;;;30.90;10.60;;;;;;;;;;5031498;28;20037;-80
2022/01/12 04:59:38;;;;;;;30.75;10.25;;;;;;;;;;5055186;28;20630;-79
2022/01/12 05:06:20;;;;;;;30.58;10.68;;;;;;;;;;5048611;28;20029;-79
2022/01/12 05:07:44;;;;;;;26.77;10.43;;;;;;;;;;5053336;28;20072;-80
2022/01/12 05:12:55;;;;;;;29.90;12.23;;;;;;;;;;5030853;28;20029;-80
2022/01/12 05:15:34;;;;;;;29.30;10.85;;;;;;;;;;5027665;28;20114;-80
2022/01/12 05:17:59;;;;;;;19.88;8.32;;;;;;;;;;5032867;28;20131;-80
2022/01/12 05:20:25;;;;;;;24.70;9.65;;;;;;;;;;5033648;28;20748;-80
2022/01/12 05:22:51;;;;;;;32.53;12.20;;;;;;;;;;5032632;28;20196;-79
2022/01/12 05:25:19;;;;;;;24.20;9.50;;;;;;;;;;5032649;28;20371;-80
2022/01/12 05:27:46;;;;;;;21.42;9.77;;;;;;;;;;5032589;28;20099;-80
2022/01/12 05:30:12;;;;;;;31.77;11.82;;;;;;;;;;5032069;28;20041;-80
2022/01/12 05:32:37;;;;;;;30.02;10.27;;;;;;;;;;5027138;28;20055;-79
2022/01/12 05:35:05;;;;;;;32.65;11.45;;;;;;;;;;5029500;28;20025;-80
2022/01/12 05:37:30;;;;;;;28.42;10.70;;;;;;;;;;5034437;28;20117;-79
2022/01/12 05:39:56;;;;;;;33.47;11.02;;;;;;;;;;5031852;28;20132;-79
2022/01/12 05:42:22;;;;;;;32.50;11.30;;;;;;;;;;5034124;28;20041;-79
2022/01/12 05:44:48;;;;;;;21.88;9.45;;;;;;;;;;5030355;28;20038;-79
2022/01/12 05:47:30;;;;;;;29.52;10.52;;;;;;;;;;5031339;28;20078;-79
2022/01/12 05:49:56;;;;;;;28.25;11.18;;;;;;;;;;5031839;28;20029;-80
2022/01/12 05:52:21;;;;;;;28.75;10.65;;;;;;;;;;5036765;28;20029;-79
2022/01/12 05:54:46;;;;;;;33.08;10.93;;;;;;;;;;5033561;28;20041;-79
2022/01/12 05:57:12;;;;;;;34.50;11.82;;;;;;;;;;5029998;28;20044;-79
2022/01/12 05:59:37;;;;;;;29.58;10.85;;;;;;;;;;5029428;28;20045;-79
2022/01/12 06:02:03;;;;;;;28.27;10.50;;;;;;;;;;5031547;28;20024;-80
2022/01/12 06:04:28;;;;;;;32.75;11.40;;;;;;;;;;5028581;28;20037;-79
2022/01/12 06:06:56;;;;;;;27.42;11.00;;;;;;;;;;5035085;28;20083;-79
2022/01/12 06:09:22;;;;;;;28.40;10.98;;;;;;;;;;5032756;28;20044;-79
2022/01/12 06:11:48;;;;;;;30.27;10.90;;;;;;;;;;5046782;28;20048;-79
2022/01/12 06:14:18;;;;;;;33.50;11.77;;;;;;;;;;5050916;28;20025;-79
2022/01/12 06:16:43;;;;;;;29.65;11.45;;;;;;;;;;5053320;28;20443;-79
2022/01/12 06:19:09;;;;;;;29.77;11.32;;;;;;;;;;5049235;28;20041;-79
2022/01/12 06:21:34;;;;;;;32.45;11.75;;;;;;;;;;5051966;28;20037;-79
2022/01/12 06:23:59;;;;;;;38.45;12.52;;;;;;;;;;5055637;28;20495;-80
2022/01/12 06:26:26;;;;;;;31.30;10.88;;;;;;;;;;5054338;28;20824;-79
2022/01/12 06:29:14;;;;;;;38.45;12.85;;;;;;;;;;5056632;28;20045;-79
2022/01/12 06:31:40;;;;;;;34.95;12.63;;;;;;;;;;5061445;28;20041;-79
2022/01/12 06:34:06;;;;;;;37.95;13.00;;;;;;;;;;5061687;28;20106;-79
2022/01/12 06:36:31;;;;;;;35.55;13.32;;;;;;;;;;5055475;28;20564;-79
2022/01/12 06:38:57;;;;;;;38.35;14.57;;;;;;;;;;5055991;28;20043;-79
2022/01/12 06:41:22;;;;;;;39.83;11.75;;;;;;;;;;5055142;28;20033;-79
2022/01/12 06:43:48;;;;;;;31.20;12.63;;;;;;;;;;5057135;28;20029;-79
2022/01/12 06:46:22;;;;;;;38.60;12.27;;;;;;;;;;5054551;28;20040;-79
2022/01/12 06:48:48;;;;;;;31.05;12.13;;;;;;;;;;5054027;28;21017;-80
2022/01/12 06:51:13;;;;;;;35.53;11.82;;;;;;;;;;5054355;28;20041;-79
2022/01/12 06:53:39;;;;;;;31.92;12.15;;;;;;;;;;5048780;28;20029;-80
2022/01/12 06:56:04;;;;;;;34.72;12.15;;;;;;;;;;5061053;28;20012;-80
2022/01/12 06:58:30;;;;;;;32.45;11.25;;;;;;;;;;5060636;28;20029;-80
2022/01/12 07:00:55;;;;;;;32.58;12.15;;;;;;;;;;5050989;28;20037;-80
2022/01/12 07:03:21;;;;;;;30.67;11.57;;;;;;;;;;5054361;28;20683;-80
2022/01/12 07:05:47;;;;;;;30.70;11.63;;;;;;;;;;5053540;28;20425;-80
2022/01/12 07:08:13;;;;;;;31.50;12.57;;;;;;;;;;5065722;28;20021;-80
2022/01/12 07:10:39;;;;;;;36.35;12.82;;;;;;;;;;5054393;28;20630;-80
2022/01/12 07:13:04;;;;;;;35.97;11.43;;;;;;;;;;5055088;28;20042;-80
2022/01/12 07:15:29;;;;;;;32.03;11.68;;;;;;;;;;5050558;28;20052;-80
2022/01/12 07:17:55;;;;;;;30.33;11.48;;;;;;;;;;5057830;28;20053;-80
2022/01/12 07:20:21;;;;;;;32.35;12.32;;;;;;;;;;5058920;28;20519;-80
2022/01/12 07:22:46;;;;;;;32.55;11.50;;;;;;;;;;5050737;28;20033;-80
2022/01/12 07:25:11;;;;;;;37.00;13.25;;;;;;;;;;5058556;28;20048;-80
2022/01/12 07:27:39;;;;;;;32.22;12.23;;;;;;;;;;5051518;28;20052;-80
2022/01/12 07:30:05;;;;;;;34.97;12.35;;;;;;;;;;5056236;28;20043;-80
2022/01/12 07:32:30;;;;;;;34.33;12.40;;;;;;;;;;5052360;28;20025;-80
2022/01/12 07:34:56;;;;;;;30.58;12.20;;;;;;;;;;5055556;28;20028;-80
2022/01/12 07:37:22;;;;;;;39.80;13.75;;;;;;;;;;5053777;28;20045;-80
2022/01/12 07:39:48;;;;;;;36.10;13.25;;;;;;;;;;5053035;28;20051;-80
2022/01/12 07:42:13;;;;;;;32.30;12.57;;;;;;;;;;5050288;28;20140;-80
2022/01/12 07:44:39;;;;;;;35.33;11.88;;;;;;;;;;5069610;28;20123;-80
2022/01/12 07:47:05;;;;;;;39.35;12.98;;;;;;;;;;5032749;28;20029;-80
2022/01/12 07:49:31;;;;;;;34.53;14.40;;;;;;;;;;5052974;28;20047;-80
2022/01/12 07:51:57;;;;;;;44.30;16.08;;;;;;;;;;5037079;28;20082;-82
2022/01/12 07:54:22;;;;;;;30.70;11.70;;;;;;;;;;5058057;28;20472;-79
2022/01/12 07:56:48;;;;;;;35.97;12.10;;;;;;;;;;5050452;28;20074;-79
2022/01/12 07:59:14;;;;;;;32.85;13.43;;;;;;;;;;5051429;28;20035;-82
2022/01/12 08:01:39;;;;;;;34.40;11.70;;;;;;;;;;5045375;28;20025;-76
2022/01/12 08:04:04;;;;;;;36.88;14.05;;;;;;;;;;5050117;28;20655;-76
2022/01/12 08:06:30;;;;;;;33.92;11.38;;;;;;;;;;5054355;28;20064;-84
2022/01/12 08:08:56;;;;;;;34.17;11.68;;;;;;;;;;5037094;28;20124;-81
2022/01/12 08:11:23;;;;;;;33.85;12.90;;;;;;;;;;5050806;28;20045;-76
2022/01/12 08:13:49;;;;;;;33.65;13.00;;;;;;;;;;5056633;28;20036;-76
2022/01/12 08:16:14;;;;;;;34.88;13.00;;;;;;;;;;5052753;28;20029;-77
2022/01/12 08:18:40;;;;;;;37.60;13.85;;;;;;;;;;5048918;28;20047;-75
2022/01/12 08:21:06;;;;;;;31.58;13.32;;;;;;;;;;5058290;28;20119;-74
2022/01/12 08:23:32;;;;;;;40.83;13.07;;;;;;;;;;5061451;28;20032;-77
2022/01/12 08:25:58;;;;;;;34.83;14.32;;;;;;;;;;5054994;28;20032;-74
2022/01/12 08:28:23;;;;;;;35.90;13.43;;;;;;;;;;5053423;28;20438;-81
2022/01/12 08:30:49;;;;;;;39.20;13.20;;;;;;;;;;5038916;28;20048;-79
2022/01/12 08:33:15;;;;;;;36.78;13.48;;;;;;;;;;5058217;28;20044;-78
2022/01/12 08:35:44;;;;;;;41.85;13.70;;;;;;;;;;5036064;28;20047;-82
2022/01/12 08:38:09;;;;;;;46.50;16.00;;;;;;;;;;5031872;28;20135;-77
2022/01/12 08:40:38;;;;;;;37.47;13.45;;;;;;;;;;5054661;28;20064;-75
2022/01/12 08:43:06;;;;;;;46.53;15.50;;;;;;;;;;5052660;28;20530;-75
2022/01/12 08:45:31;;;;;;;45.38;15.93;;;;;;;;;;5052265;28;20151;-75
2022/01/12 08:47:57;;;;;;;44.92;14.55;;;;;;;;;;5053112;28;20053;-85
2022/01/12 08:50:22;;;;;;;42.15;14.30;;;;;;;;;;5035391;28;20095;-82
2022/01/12 08:52:48;;;;;;;44.42;15.60;;;;;;;;;;5058980;28;20032;-81
2022/01/12 08:55:17;;;;;;;55.08;16.52;;;;;;;;;;5043378;28;20040;-92
2022/01/12 08:57:43;;;;;;;50.58;16.10;;;;;;;;;;5034686;28;20143;-84
2022/01/12 09:00:09;;;;;;;48.92;16.92;;;;;;;;;;5035986;28;20111;-78
2022/01/12 09:02:35;;;;;;;38.60;15.50;;;;;;;;;;5050424;28;20052;-83
2022/01/12 09:05:01;;;;;;;47.67;15.75;;;;;;;;;;5044085;28;20130;-79
2022/01/12 09:07:26;;;;;;;47.03;15.23;;;;;;;;;;5049502;28;20044;-80
2022/01/12 09:09:52;;;;;;;59.42;16.38;;;;;;;;;;5049863;28;20049;-76
2022/01/12 09:12:18;;;;;;;54.33;16.77;;;;;;;;;;5032011;28;20585;-75
2022/01/12 09:14:44;;;;;;;57.60;16.60;;;;;;;;;;5036837;28;20634;-73
2022/01/12 09:17:17;;;;;;;54.75;17.05;;;;;;;;;;5030928;28;20143;-74
2022/01/12 09:19:43;;;;;;;48.08;16.45;;;;;;;;;;5035998;28;20060;-77
2022/01/12 09:22:09;;;;;;;57.00;16.35;;;;;;;;;;5030693;28;20053;-76
2022/01/12 09:24:36;;;;;;;72.47;18.30;;;;;;;;;;5032016;28;20464;-75
2022/01/12 09:27:01;;;;;;;60.55;17.42;;;;;;;;;;5040679;28;20403;-78
2022/01/12 09:29:26;;;;;;;76.50;18.23;;;;;;;;;;5034583;28;20510;-75
2022/01/12 09:31:52;;;;;;;101.30;19.17;;;;;;;;;;5032916;28;20052;-80
2022/01/12 09:34:17;;;;;;;68.60;18.67;;;;;;;;;;5040076;28;20462;-78
2022/01/12 09:36:42;;;;;;;94.43;21.08;;;;;;;;;;5039859;28;20441;-78
2022/01/12 09:39:09;;;;;;;82.90;19.63;;;;;;;;;;5043195;28;20061;-82
2022/01/12 09:41:35;;;;;;;81.85;18.48;;;;;;;;;;5030079;28;20073;-86
2022/01/12 09:44:01;;;;;;;132.73;20.25;;;;;;;;;;5034967;28;20043;-84
2022/01/12 09:46:27;;;;;;;87.20;18.92;;;;;;;;;;5027249;28;20041;-86
2022/01/12 09:48:53;;;;;;;78.00;17.52;;;;;;;;;;5045428;28;20703;-84
2022/01/12 09:51:21;;;;;;;106.95;19.42;;;;;;;;;;5024930;28;20119;-83
2022/01/12 09:53:46;;;;;;;77.18;19.30;;;;;;;;;;5028620;28;20153;-85
2022/01/12 09:56:16;;;;;;;76.05;17.27;;;;;;;;;;5028538;28;20150;-81
2022/01/12 09:58:41;;;;;;;93.45;18.33;;;;;;;;;;5034189;28;20037;-83
2022/01/12 10:01:07;;;;;;;79.38;17.52;;;;;;;;;;5039067;28;20025;-78
2022/01/12 10:03:32;;;;;;;101.72;18.38;;;;;;;;;;5034501;28;20519;-79
2022/01/12 10:05:58;;;;;;;74.35;18.77;;;;;;;;;;5029848;28;20037;-78
2022/01/12 10:08:23;;;;;;;133.25;17.38;;;;;;;;;;5030318;28;20031;-80
2022/01/12 10:11:10;;;;;;;80.38;19.08;;;;;;;;;;5037975;28;20136;-79
2022/01/12 10:13:37;;;;;;;89.75;19.00;;;;;;;;;;5035469;28;20045;-77
2022/01/12 10:16:17;;;;;;;97.00;18.73;;;;;;;;;;5054740;28;20109;-81
2022/01/12 10:19:01;;;;;;;98.63;19.45;;;;;;;;;;5052181;28;20119;-75
2022/01/12 10:21:49;;;;;;;88.80;19.75;;;;;;;;;;5054648;28;20037;-75
2022/01/12 10:24:18;;;;;;;84.20;18.25;;;;;;;;;;5049998;28;20094;-80
2022/01/12 10:26:47;;;;;;;97.88;19.77;;;;;;;;;;5054430;28;20094;-70
2022/01/12 10:29:16;;;;;;;119.25;19.77;;;;;;;;;;5051687;28;20032;-70
2022/01/12 10:31:46;;;;;;;90.28;18.20;;;;;;;;;;5049764;28;20040;-70
2022/01/12 10:34:12;;;;;;;80.40;17.10;;;;;;;;;;5052037;28;20506;-71
2022/01/12 10:36:42;;;;;;;121.60;18.85;;;;;;;;;;5055896;28;20150;-69
2022/01/12 10:39:13;;;;;;;71.03;16.75;;;;;;;;;;5058034;28;20029;-70
2022/01/12 10:41:52;;;;;;;72.80;16.80;;;;;;;;;;5063651;28;20040;-71
2022/01/12 10:44:27;;;;;;;123.40;18.38;;;;;;;;;;5058199;28;20020;-71
2022/01/12 10:47:06;;;;;;;100.30;17.70;;;;;;;;;;5049527;28;20028;-74
2022/01/12 10:49:33;;;;;;;88.95;16.85;;;;;;;;;;5034334;28;20037;-70
2022/01/12 10:51:59;;;;;;;78.13;16.83;;;;;;;;;;5057462;28;20572;-70
2022/01/12 10:54:25;;;;;;;77.10;18.35;;;;;;;;;;5061277;28;20039;-71
2022/01/12 10:56:51;;;;;;;82.35;19.52;;;;;;;;;;5052313;28;20094;-72
2022/01/12 10:59:18;;;;;;;78.30;17.70;;;;;;;;;;5054432;28;20017;-71
2022/01/12 11:01:44;;;;;;;124.88;19.20;;;;;;;;;;5053505;28;20028;-70
2022/01/12 11:04:10;;;;;;;107.72;17.08;;;;;;;;;;5045635;28;20033;-71
2022/01/12 11:06:35;;;;;;;73.88;17.48;;;;;;;;;;5051022;28;20029;-73
2022/01/12 11:09:02;;;;;;;98.80;18.67;;;;;;;;;;5050630;28;20041;-70
2022/01/12 11:11:29;;;;;;;69.80;17.77;;;;;;;;;;5052674;28;20053;-71
2022/01/12 11:13:55;;;;;;;68.85;17.20;;;;;;;;;;5056146;28;20029;-75
2022/01/12 11:16:21;;;;;;;95.00;17.80;;;;;;;;;;5052346;28;20066;-72
2022/01/12 11:18:47;;;;;;;84.47;17.92;;;;;;;;;;5053189;28;20070;-71
2022/01/12 11:21:15;;;;;;;89.00;18.48;;;;;;;;;;5052809;28;20425;-74
2022/01/12 11:23:43;;;;;;;87.90;19.85;;;;;;;;;;5053914;28;20882;-74
2022/01/12 11:26:30;;;;;;;109.38;17.15;;;;;;;;;;5060303;28;20108;-75
2022/01/12 11:28:56;;;;;;;116.95;19.20;;;;;;;;;;5051127;28;20032;-76
2022/01/12 11:31:40;;;;;;;118.78;18.05;;;;;;;;;;5052057;28;20083;-74
2022/01/12 11:34:05;;;;;;;;;;;;;;;;;;5055838;28;20082;-75
2022/01/12 11:36:39;;;;;;;91.88;18.50;;;;;;;;;;5051660;28;19925;-75
2022/01/12 11:39:10;;;;;;;79.80;17.05;;;;;;;;;;5050378;28;20513;-75
2022/01/12 11:41:46;;;;;;;75.07;18.60;;;;;;;;;;5050740;28;20115;-74
2022/01/12 11:44:22;;;;;;;115.05;19.80;;;;;;;;;;5050611;28;20213;-74
2022/01/12 11:46:53;;;;;;;82.18;18.33;;;;;;;;;;5052375;28;20109;-74
2022/01/12 11:49:31;;;;;;;97.63;19.20;;;;;;;;;;5050478;28;20040;-75
2022/01/12 11:51:58;;;;;;;104.90;20.88;;;;;;;;;;5051198;28;20444;-75
2022/01/12 11:54:31;;;;;;;85.50;19.52;;;;;;;;;;5052691;28;20119;-75
2022/01/12 11:57:04;;;;;;;126.57;19.35;;;;;;;;;;5053692;28;20053;-75
2022/01/12 11:59:53;;;;;;;81.93;19.23;;;;;;;;;;5051306;28;20040;-75
2022/01/12 12:02:20;;;;;;;95.00;20.77;;;;;;;;;;5051216;28;20020;-75
2022/01/12 12:04:57;;;;;;;94.05;19.02;;;;;;;;;;5048700;28;20036;-75
2022/01/12 12:07:24;;;;;;;77.35;17.50;;;;;;;;;;5053026;28;20062;-75
2022/01/12 12:09:53;;;;;;;102.38;19.30;;;;;;;;;;5051961;28;20044;-75
2022/01/12 12:12:27;;;;;;;113.45;19.20;;;;;;;;;;5049554;28;20052;-74
2022/01/12 12:14:55;;;;;;;153.88;19.45;;;;;;;;;;5047177;28;20037;-75
2022/01/12 12:17:22;;;;;;;76.70;17.45;;;;;;;;;;5048598;28;20029;-74
2022/01/12 12:19:48;;;;;;;119.78;18.83;;;;;;;;;;5054118;28;20028;-74
2022/01/12 12:22:18;;;;;;;105.63;19.30;;;;;;;;;;5050407;28;20135;-75
2022/01/12 12:24:45;;;;;;;146.35;18.85;;;;;;;;;;5051033;28;20545;-75
2022/01/12 12:27:11;;;;;;;103.63;17.77;;;;;;;;;;5048687;28;20032;-75
2022/01/12 12:29:37;;;;;;;127.30;19.58;;;;;;;;;;5051201;28;20033;-75
2022/01/12 12:32:05;;;;;;;105.57;18.10;;;;;;;;;;5048716;28;20031;-73
2022/01/12 12:34:33;;;;;;;102.43;19.17;;;;;;;;;;5053144;28;20033;-72
2022/01/12 12:37:05;;;;;;;108.00;18.30;;;;;;;;;;5048102;28;20033;-72
2022/01/12 12:39:33;;;;;;;90.10;18.17;;;;;;;;;;5046707;28;20044;-72
2022/01/12 12:42:00;;;;;;;142.85;20.45;;;;;;;;;;5045969;28;20048;-72
2022/01/12 12:44:31;;;;;;;131.52;19.92;;;;;;;;;;5050766;28;20277;-75
2022/01/12 12:47:08;;;;;;;106.80;17.55;;;;;;;;;;5051445;28;20620;-74
2022/01/12 12:49:47;;;;;;;125.95;19.00;;;;;;;;;;5048852;28;20072;-72
2022/01/12 12:52:22;;;;;;;85.18;18.10;;;;;;;;;;5048183;28;20226;-74
2022/01/12 12:54:47;;;;;;;118.35;18.10;;;;;;;;;;5034140;28;20051;-72
2022/01/12 12:57:12;;;;;;;73.47;17.08;;;;;;;;;;5047240;28;20780;-74
2022/01/12 12:59:38;;;;;;;76.20;18.05;;;;;;;;;;5032410;28;20040;-72
2022/01/12 13:02:12;;;;;;;108.43;17.13;;;;;;;;;;5050061;28;20036;-70
2022/01/12 13:04:38;;;;;;;107.88;17.90;;;;;;;;;;5049190;28;20043;-72
2022/01/12 13:07:18;;;;;;;87.07;16.95;;;;;;;;;;5049415;28;20037;-72
2022/01/12 13:09:44;;;;;;;83.00;16.80;;;;;;;;;;5031888;28;20746;-73
2022/01/12 13:12:10;;;;;;;68.97;14.32;;;;;;;;;;5048354;28;20128;-71
2022/01/12 13:14:44;;;;;;;70.30;16.23;;;;;;;;;;5047632;28;20125;-74
2022/01/12 13:17:10;;;;;;;91.00;15.48;;;;;;;;;;5048619;28;20025;-74
2022/01/12 13:22:39;;;;;;;99.75;16.00;;;;;;;;;;5061276;28;20033;-73
2022/01/12 13:25:08;;;;;;;70.57;14.10;;;;;;;;;;5059744;28;20064;-72
2022/01/12 13:27:38;;;;;;;87.50;13.63;;;;;;;;;;5052663;28;20140;-73
2022/01/12 13:30:07;;;;;;;76.00;14.82;;;;;;;;;;5052170;28;20549;-73
2022/01/12 13:32:32;;;;;;;66.38;14.27;;;;;;;;;;5054938;28;20029;-73
2022/01/12 13:35:01;;;;;;;86.35;13.70;;;;;;;;;;5037459;28;20857;-73
2022/01/12 13:37:27;;;;;;;94.78;14.85;;;;;;;;;;5051840;28;20041;-72
2022/01/12 13:40:05;;;;;;;75.35;15.15;;;;;;;;;;5054363;28;20086;-74
2022/01/12 13:42:30;;;;;;;64.47;14.02;;;;;;;;;;5054276;28;20083;-73
2022/01/12 13:45:08;;;;;;;52.95;13.35;;;;;;;;;;5051740;28;20118;-73
2022/01/12 13:47:35;;;;;;;57.05;12.50;;;;;;;;;;5054114;28;20051;-73
2022/01/12 13:50:09;;;;;;;72.95;15.55;;;;;;;;;;5056016;28;20028;-73
2022/01/12 13:52:37;;;;;;;81.38;14.10;;;;;;;;;;5052270;28;20120;-72
2022/01/12 13:55:11;;;;;;;49.60;13.48;;;;;;;;;;5051338;28;20045;-72
2022/01/12 13:57:37;;;;;;;64.05;14.23;;;;;;;;;;5063678;28;20147;-73
2022/01/12 14:00:05;;;;;;;57.80;12.38;;;;;;;;;;5057552;28;20036;-70
2022/01/12 14:02:30;;;;;;;50.88;10.88;;;;;;;;;;5051422;28;20043;-72
2022/01/12 14:05:07;;;;;;;63.50;13.40;;;;;;;;;;5053820;28;20029;-72
2022/01/12 14:07:39;;;;;;;84.93;15.25;;;;;;;;;;5053887;28;20037;-78
2022/01/12 14:10:06;;;;;;;54.55;13.80;;;;;;;;;;5055345;28;20130;-77
2022/01/12 14:12:32;;;;;;;85.32;13.57;;;;;;;;;;5053782;28;20040;-74
2022/01/12 14:15:00;;;;;;;73.40;12.60;;;;;;;;;;5048387;28;20044;-77
2022/01/12 14:17:48;;;;;;;65.65;12.18;;;;;;;;;;5031308;28;20574;-74
2022/01/12 14:20:23;;;;;;;52.75;12.55;;;;;;;;;;5053601;28;20042;-74
2022/01/12 14:22:58;;;;;;;50.85;11.48;;;;;;;;;;5051072;28;20395;-74
2022/01/12 14:25:47;;;;;;;76.70;13.82;;;;;;;;;;5053188;28;20422;-72
2022/01/12 14:28:27;;;;;;;59.10;12.55;;;;;;;;;;5054123;28;20068;-76
2022/01/12 14:30:56;;;;;;;81.65;13.43;;;;;;;;;;5052863;28;21202;-87
2022/01/12 14:33:22;;;;;;;84.93;13.50;;;;;;;;;;5052975;28;20040;-75
2022/01/12 14:35:48;;;;;;;44.78;11.23;;;;;;;;;;5051452;28;20099;-77
2022/01/12 14:38:13;;;;;;;47.58;12.43;;;;;;;;;;5052380;28;21159;-77
2022/01/12 14:40:38;;;;;;;39.20;11.77;;;;;;;;;;5034320;28;20021;-74
2022/01/12 14:43:09;;;;;;;61.00;11.68;;;;;;;;;;5044914;28;20052;-74
2022/01/12 14:45:39;;;;;;;42.10;11.00;;;;;;;;;;5053488;28;20045;-80
2022/01/12 14:48:16;;;;;;;47.58;11.32;;;;;;;;;;5052421;28;20044;-76
2022/01/12 14:50:42;;;;;;;57.38;12.20;;;;;;;;;;5051237;28;20119;-75
2022/01/12 14:53:09;;;;;;;62.17;12.38;;;;;;;;;;5053397;28;21409;-75
2022/01/12 14:55:35;;;;;;;44.85;10.70;;;;;;;;;;5049764;28;20053;-75
2022/01/12 14:58:00;;;;;;;86.13;11.48;;;;;;;;;;5051704;28;21765;-75
2022/01/12 15:00:34;;;;;;;54.40;11.95;;;;;;;;;;5049200;28;20049;-75
2022/01/12 15:03:03;;;;;;;51.75;11.05;;;;;;;;;;5051462;28;20045;-73
2022/01/12 15:05:30;;;;;;;81.38;11.10;;;;;;;;;;5053888;28;20039;-72
2022/01/12 15:07:56;;;;;;;84.63;11.32;;;;;;;;;;5052260;28;20029;-71
2022/01/12 15:10:22;;;;;;;82.38;11.20;;;;;;;;;;5052736;28;20128;-70
2022/01/12 15:12:51;;;;;;;70.60;10.57;;;;;;;;;;5053323;28;20028;-70
2022/01/12 15:15:18;;;;;;;72.20;11.95;;;;;;;;;;5061887;28;20040;-74
2022/01/12 15:17:43;;;;;;;52.83;11.73;;;;;;;;;;5056594;28;20033;-72
2022/01/12 15:20:11;;;;;;;62.28;11.23;;;;;;;;;;5047333;28;20020;-77
2022/01/12 15:22:39;;;;;;;52.83;11.30;;;;;;;;;;5057520;28;20451;-73
2022/01/12 15:25:07;;;;;;;45.58;12.15;;;;;;;;;;5052195;28;20040;-73
2022/01/12 15:27:32;;;;;;;45.92;11.25;;;;;;;;;;5054299;28;20138;-73
2022/01/12 15:29:57;;;;;;;54.40;10.93;;;;;;;;;;5049746;28;20131;-74
2022/01/12 15:32:26;;;;;;;109.50;12.27;;;;;;;;;;5049388;28;20028;-75
2022/01/12 15:34:53;;;;;;;105.25;17.75;;;;;;;;;;5048151;28;20029;-73